createdAt,value
2022-10-10T00:01:36.924Z,33.30
2022-10-10T00:04:06.350Z,33.80
2022-10-10T00:06:35.344Z,35.40
2022-10-10T00:09:05.673Z,36.30
2022-10-10T00:11:34.879Z,34.40
2022-10-10T00:14:03.599Z,37.80
2022-10-10T00:16:32.294Z,32.40
2022-10-10T00:19:01.087Z,34.80
2022-10-10T00:21:31.276Z,30.70
2022-10-10T00:24:00.513Z,34.60
2022-10-10T00:26:29.482Z,31.30
2022-10-10T00:28:58.273Z,41.40
2022-10-10T00:31:27.494Z,35.20
2022-10-10T00:33:56.157Z,34.40
2022-10-10T00:36:24.784Z,39.70
2022-10-10T00:38:53.484Z,35.90
2022-10-10T00:41:23.486Z,40.80
2022-10-10T00:44:03.502Z,37.00
2022-10-10T00:46:32.235Z,33.60
2022-10-10T00:49:02.111Z,37.10
2022-10-10T00:51:31.205Z,37.50
2022-10-10T00:54:03.974Z,35.20
2022-10-10T00:56:37.437Z,36.50
2022-10-10T00:59:10.507Z,34.70
2022-10-10T01:01:40.724Z,34.30
2022-10-10T01:04:31.081Z,38.50
2022-10-10T01:07:01.598Z,33.50
2022-10-10T01:09:31.046Z,34.40
2022-10-10T01:12:12.100Z,32.40
2022-10-10T01:14:47.596Z,31.30
2022-10-10T01:17:28.620Z,33.30
2022-10-10T01:20:29.611Z,30.90
2022-10-10T01:23:23.554Z,33.70
2022-10-10T01:26:08.221Z,31.20
2022-10-10T01:28:43.671Z,34.70
2022-10-10T01:31:15.977Z,31.40
2022-10-10T01:33:54.817Z,32.40
2022-10-10T01:36:32.281Z,38.10
2022-10-10T01:39:07.446Z,33.60
2022-10-10T01:41:43.018Z,36.90
2022-10-10T01:44:11.711Z,34.80
2022-10-10T01:46:40.710Z,30.40
2022-10-10T01:49:09.537Z,30.70
2022-10-10T01:51:53.612Z,32.20
2022-10-10T01:54:34.739Z,38.50
2022-10-10T01:57:19.219Z,30.50
2022-10-10T01:59:57.350Z,32.40
2022-10-10T02:02:36.076Z,33.40
2022-10-10T02:05:12.474Z,31.80
2022-10-10T02:07:47.990Z,39.00
2022-10-10T02:10:21.811Z,32.50
2022-10-10T02:12:51.582Z,31.70
2022-10-10T02:15:24.875Z,32.60
2022-10-10T02:17:56.116Z,32.00
2022-10-10T02:20:27.664Z,32.60
2022-10-10T02:22:56.681Z,38.90
2022-10-10T02:25:31.583Z,33.70
2022-10-10T02:28:10.860Z,32.00
2022-10-10T02:30:44.543Z,35.50
2022-10-10T02:33:19.385Z,34.40
2022-10-10T02:35:50.920Z,34.40
2022-10-10T02:38:20.512Z,33.50
2022-10-10T02:40:50.263Z,37.80
2022-10-10T02:43:20.107Z,35.50
2022-10-10T02:45:48.958Z,36.50
2022-10-10T02:48:17.830Z,37.00
2022-10-10T02:50:46.725Z,35.60
2022-10-10T02:53:15.415Z,36.60
2022-10-10T02:55:44.482Z,35.70
2022-10-10T02:58:13.630Z,36.00
2022-10-10T03:00:42.637Z,32.30
2022-10-10T03:03:11.394Z,33.90
2022-10-10T03:05:40.159Z,33.10
2022-10-10T03:08:11.702Z,34.40
2022-10-10T03:10:41.218Z,29.40
2022-10-10T03:13:09.964Z,32.80
2022-10-10T03:15:38.740Z,34.30
2022-10-10T03:18:07.421Z,30.50
2022-10-10T03:20:36.266Z,35.70
2022-10-10T03:23:05.027Z,33.20
2022-10-10T03:25:34.360Z,26.40
2022-10-10T03:28:03.161Z,29.40
2022-10-10T03:30:31.984Z,31.60
2022-10-10T03:33:00.685Z,29.30
2022-10-10T03:35:29.507Z,29.10
2022-10-10T03:37:58.974Z,31.40
2022-10-10T03:40:28.951Z,31.90
2022-10-10T03:42:57.891Z,34.60
2022-10-10T03:45:26.864Z,30.10
2022-10-10T03:47:55.549Z,30.20
2022-10-10T03:50:24.267Z,30.10
2022-10-10T03:52:53.170Z,29.30
2022-10-10T03:55:22.219Z,33.10
2022-10-10T03:57:51.049Z,28.30
2022-10-10T04:00:20.099Z,29.40
2022-10-10T04:02:48.972Z,31.50
2022-10-10T04:05:18.061Z,28.00
2022-10-10T04:07:46.790Z,25.10
2022-10-10T04:10:15.600Z,32.30
2022-10-10T04:12:44.559Z,33.80
2022-10-10T04:15:13.238Z,27.90
2022-10-10T04:17:42.170Z,26.40
2022-10-10T04:20:11.149Z,30.10
2022-10-10T04:22:40.092Z,25.50
2022-10-10T04:25:10.097Z,29.70
2022-10-10T04:27:39.661Z,30.10
2022-10-10T04:30:10.793Z,31.60
2022-10-10T04:32:39.888Z,27.60
2022-10-10T04:35:10.143Z,24.70
2022-10-10T04:37:39.294Z,29.80
2022-10-10T04:40:10.558Z,29.50
2022-10-10T04:42:39.414Z,25.40
2022-10-10T04:45:10.136Z,26.50
2022-10-10T04:47:39.082Z,28.10
2022-10-10T04:50:09.286Z,26.60
2022-10-10T04:52:38.379Z,26.40
2022-10-10T04:55:08.269Z,27.50
2022-10-10T04:57:37.276Z,25.90
2022-10-10T05:00:08.678Z,27.20
2022-10-10T05:02:37.736Z,27.20
2022-10-10T05:05:08.894Z,32.50
2022-10-10T05:07:38.085Z,25.00
2022-10-10T05:10:09.227Z,27.60
2022-10-10T05:12:38.322Z,26.20
2022-10-10T05:15:08.789Z,23.80
2022-10-10T05:17:37.691Z,30.60
2022-10-10T05:20:08.647Z,28.70
2022-10-10T05:22:37.956Z,26.50
2022-10-10T05:25:08.825Z,29.20
2022-10-10T05:27:37.593Z,24.90
2022-10-10T05:30:08.554Z,24.30
2022-10-10T05:32:37.410Z,23.00
2022-10-10T05:35:08.559Z,25.30
2022-10-10T05:37:38.198Z,24.00
2022-10-10T05:40:09.303Z,24.10
2022-10-10T05:42:38.294Z,23.10
2022-10-10T05:45:08.977Z,26.90
2022-10-10T05:47:37.984Z,24.30
2022-10-10T05:50:17.343Z,26.60
2022-10-10T05:52:46.120Z,22.70
2022-10-10T05:55:15.060Z,20.20
2022-10-10T05:57:44.069Z,22.90
2022-10-10T06:00:14.738Z,22.50
2022-10-10T06:02:43.626Z,22.00
2022-10-10T06:05:12.883Z,21.90
2022-10-10T06:08:03.424Z,22.70
2022-10-10T06:10:33.556Z,20.90
2022-10-10T06:13:02.466Z,19.50
2022-10-10T06:15:31.614Z,23.50
2022-10-10T06:18:00.595Z,20.10
2022-10-10T06:20:29.426Z,22.10
2022-10-10T06:22:58.645Z,18.30
2022-10-10T06:25:40.083Z,16.20
2022-10-10T06:28:10.005Z,18.60
2022-10-10T06:30:42.050Z,19.10
2022-10-10T06:33:12.728Z,15.90
2022-10-10T06:35:43.079Z,18.10
2022-10-10T06:38:12.330Z,18.10
2022-10-10T06:40:42.385Z,15.70
2022-10-10T06:43:13.393Z,19.80
2022-10-10T06:45:43.768Z,19.30
2022-10-10T06:48:15.059Z,16.00
2022-10-10T06:50:44.074Z,16.80
2022-10-10T06:53:13.246Z,17.80
2022-10-10T06:55:47.459Z,16.50
2022-10-10T06:58:16.219Z,15.30
2022-10-10T07:00:50.819Z,17.00
2022-10-10T07:03:20.001Z,16.70
2022-10-10T07:05:53.635Z,15.90
2022-10-10T07:08:22.728Z,20.30
2022-10-10T07:10:51.880Z,16.00
2022-10-10T07:13:21.158Z,18.10
2022-10-10T07:15:50.223Z,14.90
2022-10-10T07:18:19.914Z,15.70
2022-10-10T07:20:49.583Z,17.10
2022-10-10T07:23:18.376Z,15.90
2022-10-10T07:25:47.300Z,16.00
2022-10-10T07:28:16.377Z,17.00
2022-10-10T07:30:46.362Z,16.80
2022-10-10T07:33:16.024Z,16.20
2022-10-10T07:35:53.931Z,15.80
2022-10-10T07:38:23.421Z,17.50
2022-10-10T07:40:52.630Z,15.30
2022-10-10T07:43:21.525Z,18.70
2022-10-10T07:45:51.979Z,16.40
2022-10-10T07:48:21.060Z,20.50
2022-10-10T07:50:49.861Z,18.70
2022-10-10T07:53:18.987Z,18.50
2022-10-10T07:55:47.872Z,15.90
2022-10-10T07:58:17.018Z,15.70
2022-10-10T08:00:45.846Z,16.70
2022-10-10T08:03:16.066Z,14.20
2022-10-10T08:05:46.490Z,16.60
2022-10-10T08:08:17.611Z,15.70
2022-10-10T08:10:46.299Z,16.30
2022-10-10T08:13:15.030Z,12.10
2022-10-10T08:15:43.843Z,14.60
2022-10-10T08:18:12.493Z,12.30
2022-10-10T08:20:41.269Z,14.80
2022-10-10T08:23:10.011Z,12.50
2022-10-10T08:25:38.818Z,15.10
2022-10-10T08:28:07.609Z,13.10
2022-10-10T08:30:41.318Z,14.70
2022-10-10T08:33:10.162Z,13.90
2022-10-10T08:35:39.568Z,12.40
2022-10-10T08:38:08.762Z,11.60
2022-10-10T08:40:45.253Z,16.50
2022-10-10T08:43:21.902Z,14.00
2022-10-10T08:45:52.929Z,13.50
2022-10-10T08:48:26.847Z,13.00
2022-10-10T08:50:59.843Z,13.00
2022-10-10T08:53:32.001Z,13.20
2022-10-10T08:56:01.490Z,11.60
2022-10-10T08:58:33.975Z,12.20
2022-10-10T09:01:11.199Z,11.50
2022-10-10T09:03:46.252Z,12.60
2022-10-10T09:06:40.800Z,11.90
2022-10-10T09:09:19.745Z,9.90
2022-10-10T09:11:59.736Z,12.60
2022-10-10T09:14:37.616Z,10.30
2022-10-10T09:17:17.018Z,10.90
2022-10-10T09:19:57.788Z,11.20
2022-10-10T09:22:33.136Z,8.60
2022-10-10T09:25:06.569Z,9.00
2022-10-10T09:27:41.802Z,9.80
2022-10-10T09:30:17.974Z,10.80
2022-10-10T09:32:52.420Z,10.70
2022-10-10T09:35:24.478Z,7.30
2022-10-10T09:37:57.653Z,7.70
2022-10-10T09:40:29.813Z,8.40
2022-10-10T09:42:59.116Z,11.50
2022-10-10T09:45:34.486Z,8.70
2022-10-10T09:48:03.622Z,8.30
2022-10-10T09:50:32.291Z,9.20
2022-10-10T09:53:01.136Z,9.60
2022-10-10T09:55:34.120Z,11.70
2022-10-10T09:58:16.531Z,11.90
2022-10-10T10:00:45.141Z,8.10
2022-10-10T10:03:16.725Z,6.50
2022-10-10T10:05:53.878Z,10.40
2022-10-10T10:08:26.507Z,7.10
2022-10-10T10:10:58.421Z,9.20
2022-10-10T10:13:30.816Z,7.00
2022-10-10T10:16:03.601Z,8.80
2022-10-10T10:18:40.074Z,5.90
2022-10-10T10:21:23.373Z,5.10
2022-10-10T10:23:55.530Z,5.50
2022-10-10T10:26:26.787Z,5.60
2022-10-10T10:28:57.448Z,4.00
2022-10-10T10:31:45.578Z,7.10
2022-10-10T10:34:39.892Z,7.30
2022-10-10T10:37:17.862Z,7.80
2022-10-10T10:39:55.307Z,6.50
2022-10-10T10:42:41.618Z,7.80
2022-10-10T10:45:17.056Z,6.70
2022-10-10T10:47:57.769Z,5.00
2022-10-10T10:50:44.094Z,4.10
2022-10-10T10:53:22.253Z,5.20
2022-10-10T10:56:03.892Z,7.10
2022-10-10T10:59:23.496Z,5.80
2022-10-10T11:01:56.058Z,4.60
2022-10-10T11:05:17.915Z,5.70
2022-10-10T11:07:47.723Z,5.30
2022-10-10T11:10:28.392Z,7.10
2022-10-10T11:13:10.378Z,5.40
2022-10-10T11:18:36.766Z,4.10
2022-10-10T11:21:10.674Z,5.30
2022-10-10T11:23:44.286Z,3.30
2022-10-10T11:26:21.944Z,5.90
2022-10-10T11:28:56.834Z,5.20
2022-10-10T11:31:32.190Z,4.60
2022-10-10T11:34:07.469Z,5.20
2022-10-10T11:36:41.322Z,8.70
2022-10-10T11:39:16.043Z,5.80
2022-10-10T11:41:51.549Z,5.80
2022-10-10T11:44:25.257Z,3.40
2022-10-10T11:47:00.081Z,4.10
2022-10-10T11:49:38.386Z,4.80
2022-10-10T11:52:33.467Z,5.10
2022-10-10T11:55:10.734Z,6.40
2022-10-10T11:57:46.237Z,10.30
2022-10-10T12:00:18.025Z,5.80
2022-10-10T12:02:49.351Z,8.10
2022-10-10T12:05:22.315Z,4.50
2022-10-10T12:08:04.672Z,7.30
2022-10-10T12:10:37.625Z,5.50
2022-10-10T12:13:24.755Z,4.80
2022-10-10T12:15:56.451Z,4.20
2022-10-10T12:18:29.488Z,5.00
2022-10-10T12:21:07.569Z,3.80
2022-10-10T12:23:37.363Z,4.10
2022-10-10T12:26:06.508Z,3.90
2022-10-10T12:28:56.748Z,3.30
2022-10-10T12:31:33.480Z,6.20
2022-10-10T12:34:16.981Z,4.00
2022-10-10T12:36:58.208Z,5.80
2022-10-10T12:39:38.654Z,6.30
2022-10-10T12:42:29.145Z,6.10
2022-10-10T12:44:58.536Z,7.70
2022-10-10T12:48:03.463Z,6.50
2022-10-10T12:50:27.364Z,5.60
2022-10-10T12:52:58.852Z,5.00
2022-10-10T12:55:31.667Z,8.00
2022-10-10T12:58:03.666Z,5.00
2022-10-10T13:00:41.282Z,6.30
2022-10-10T13:03:17.348Z,4.10
2022-10-10T13:05:48.792Z,10.40
2022-10-10T13:08:20.620Z,4.40
2022-10-10T13:11:06.451Z,9.10
2022-10-10T13:13:36.186Z,6.10
2022-10-10T13:16:11.607Z,10.10
2022-10-10T13:18:43.621Z,5.20
2022-10-10T13:21:14.961Z,5.20
2022-10-10T13:26:43.230Z,9.40
2022-10-10T13:29:23.955Z,7.20
2022-10-10T13:31:54.880Z,7.60
2022-10-10T13:34:27.438Z,9.80
2022-10-10T13:36:58.506Z,4.60
2022-10-10T13:39:28.938Z,4.90
2022-10-10T13:41:58.114Z,4.50
2022-10-10T13:44:33.925Z,5.10
2022-10-10T13:47:40.886Z,5.20
2022-10-10T13:50:20.483Z,6.50
2022-10-10T13:52:49.383Z,5.10
2022-10-10T13:55:24.811Z,4.30
2022-10-10T13:57:58.266Z,3.30
2022-10-10T14:00:32.416Z,4.70
2022-10-10T14:03:01.694Z,3.50
2022-10-10T14:05:32.109Z,3.90
2022-10-10T14:08:00.952Z,4.20
2022-10-10T14:10:35.341Z,6.50
2022-10-10T14:13:04.291Z,5.00
2022-10-10T14:15:43.183Z,3.80
2022-10-10T14:18:16.691Z,6.20
2022-10-10T14:20:46.256Z,3.60
2022-10-10T14:23:15.604Z,7.10
2022-10-10T14:25:46.569Z,7.60
2022-10-10T14:28:18.313Z,4.00
2022-10-10T14:30:47.424Z,4.20
2022-10-10T14:33:18.324Z,7.80
2022-10-10T14:35:49.370Z,3.90
2022-10-10T14:38:18.185Z,4.20
2022-10-10T14:40:49.590Z,8.40
2022-10-10T14:43:21.967Z,6.00
2022-10-10T14:45:52.466Z,6.20
2022-10-10T14:48:22.128Z,2.50
2022-10-10T14:50:51.324Z,3.50
2022-10-10T14:53:20.217Z,4.30
2022-10-10T14:55:52.550Z,4.20
2022-10-10T14:58:24.172Z,5.00
2022-10-10T15:00:53.809Z,4.30
2022-10-10T15:03:23.366Z,6.10
2022-10-10T15:05:52.341Z,4.20
2022-10-10T15:08:21.092Z,6.00
2022-10-10T15:10:49.805Z,5.60
2022-10-10T15:13:18.491Z,6.10
2022-10-10T15:15:48.090Z,6.80
2022-10-10T15:18:49.319Z,5.20
2022-10-10T15:21:10.479Z,8.90
2022-10-10T15:23:39.417Z,4.10
2022-10-10T15:26:08.170Z,5.60
2022-10-10T15:28:37.150Z,7.80
2022-10-10T15:31:07.162Z,9.30
2022-10-10T15:33:35.938Z,4.40
2022-10-10T15:36:09.399Z,5.00
2022-10-10T15:38:39.479Z,4.30
2022-10-10T15:41:09.901Z,5.10
2022-10-10T15:43:46.357Z,3.10
2022-10-10T15:46:15.046Z,8.80
2022-10-10T15:48:43.710Z,4.70
2022-10-10T15:51:12.710Z,4.40
2022-10-10T15:53:41.824Z,7.00
2022-10-10T15:56:16.719Z,4.90
2022-10-10T15:58:45.469Z,6.30
2022-10-10T16:01:16.698Z,4.70
2022-10-10T16:03:47.602Z,6.30
2022-10-10T16:06:19.573Z,7.60
2022-10-10T16:08:55.663Z,9.60
2022-10-10T16:11:33.132Z,9.00
2022-10-10T16:14:01.891Z,6.70
2022-10-10T16:16:31.331Z,8.60
2022-10-10T16:19:00.293Z,7.70
2022-10-10T16:21:29.281Z,8.80
2022-10-10T16:23:58.321Z,5.90
2022-10-10T16:26:30.142Z,7.60
2022-10-10T16:28:59.787Z,7.10
2022-10-10T16:31:29.513Z,9.50
2022-10-10T16:33:59.460Z,11.00
2022-10-10T16:36:30.276Z,9.10
2022-10-10T16:38:59.602Z,10.70
2022-10-10T16:41:47.063Z,11.50
2022-10-10T16:44:17.548Z,11.00
2022-10-10T16:46:46.488Z,6.70
2022-10-10T16:49:16.434Z,7.10
2022-10-10T16:51:45.736Z,12.20
2022-10-10T16:54:15.208Z,12.80
2022-10-10T16:56:44.099Z,7.60
2022-10-10T16:59:12.759Z,7.80
2022-10-10T17:01:44.894Z,10.10
2022-10-10T17:04:13.947Z,9.00
2022-10-10T17:06:42.820Z,8.70
2022-10-10T17:09:11.746Z,11.40
2022-10-10T17:11:41.110Z,9.60
2022-10-10T17:14:10.062Z,13.00
2022-10-10T17:19:28.325Z,7.90
2022-10-10T17:21:58.869Z,9.30
2022-10-10T17:24:27.709Z,10.10
2022-10-10T17:26:56.747Z,9.40
2022-10-10T17:29:25.846Z,8.00
2022-10-10T17:31:54.908Z,10.00
2022-10-10T17:34:24.128Z,11.10
2022-10-10T17:36:53.681Z,10.80
2022-10-10T17:39:22.410Z,9.80
2022-10-10T17:41:51.290Z,11.50
2022-10-10T17:44:20.194Z,14.50
2022-10-10T17:46:50.358Z,13.40
2022-10-10T17:49:19.620Z,11.60
2022-10-10T17:51:48.614Z,10.00
2022-10-10T17:54:17.756Z,12.50
2022-10-10T17:56:46.559Z,14.40
2022-10-10T17:59:15.689Z,13.40
2022-10-10T18:01:44.470Z,12.30
2022-10-10T18:04:15.401Z,12.10
2022-10-10T18:06:44.412Z,12.70
2022-10-10T18:09:13.260Z,10.50
2022-10-10T18:11:43.096Z,11.20
2022-10-10T18:14:12.009Z,14.80
2022-10-10T18:16:41.137Z,11.20
2022-10-10T18:19:10.762Z,12.40
2022-10-10T18:21:39.651Z,16.40
2022-10-10T18:24:09.738Z,12.20
2022-10-10T18:26:40.262Z,11.30
2022-10-10T18:29:09.213Z,16.60
2022-10-10T18:31:38.947Z,12.70
2022-10-10T18:34:08.427Z,12.90
2022-10-10T18:36:38.482Z,16.90
2022-10-10T18:39:11.155Z,15.60
2022-10-10T18:41:40.621Z,16.60
2022-10-10T18:44:12.829Z,12.90
2022-10-10T18:46:42.445Z,13.20
2022-10-10T18:49:13.937Z,12.60
2022-10-10T18:51:44.461Z,15.60
2022-10-10T18:54:15.416Z,14.90
2022-10-10T18:56:46.052Z,15.40
2022-10-10T18:59:16.800Z,15.20
2022-10-10T19:01:46.077Z,17.30
2022-10-10T19:04:16.408Z,13.80
2022-10-10T19:06:45.336Z,14.80
2022-10-10T19:09:17.160Z,14.90
2022-10-10T19:11:47.913Z,14.90
2022-10-10T19:14:18.198Z,17.40
2022-10-10T19:16:48.107Z,18.00
2022-10-10T19:19:19.580Z,18.90
2022-10-10T19:21:49.109Z,17.60
2022-10-10T19:24:20.418Z,18.30
2022-10-10T19:26:52.752Z,17.80
2022-10-10T19:29:21.643Z,22.40
2022-10-10T19:31:50.357Z,18.50
2022-10-10T19:34:19.114Z,17.40
2022-10-10T19:36:47.847Z,21.50
2022-10-10T19:39:16.578Z,20.50
2022-10-10T19:41:46.845Z,19.20
2022-10-10T19:44:15.527Z,21.90
2022-10-10T19:46:44.272Z,22.40
2022-10-10T19:49:13.047Z,19.10
2022-10-10T19:51:41.845Z,18.60
2022-10-10T19:54:10.668Z,17.80
2022-10-10T19:56:39.488Z,17.90
2022-10-10T19:59:08.605Z,17.00
2022-10-10T20:01:37.524Z,20.00
2022-10-10T20:04:06.678Z,22.30
2022-10-10T20:06:35.411Z,18.10
2022-10-10T20:09:08.361Z,22.30
2022-10-10T20:11:43.332Z,20.50
2022-10-10T20:14:11.978Z,17.80
2022-10-10T20:16:40.843Z,21.20
2022-10-10T20:19:09.530Z,20.70
2022-10-10T20:21:38.417Z,20.00
2022-10-10T20:24:09.927Z,21.10
2022-10-10T20:26:38.627Z,19.70
2022-10-10T20:29:08.169Z,19.00
2022-10-10T20:31:37.878Z,17.80
2022-10-10T20:34:07.334Z,22.30
2022-10-10T20:36:36.937Z,19.90
2022-10-10T20:39:08.878Z,22.40
2022-10-10T20:41:38.847Z,18.20
2022-10-10T20:44:10.386Z,20.90
2022-10-10T20:46:40.763Z,21.00
2022-10-10T20:49:13.871Z,22.70
2022-10-10T20:51:47.749Z,20.00
2022-10-10T20:54:18.043Z,20.80
2022-10-10T20:56:48.628Z,22.60
2022-10-10T20:59:18.112Z,22.50
2022-10-10T21:01:46.789Z,25.00
2022-10-10T21:04:15.733Z,20.10
2022-10-10T21:06:44.538Z,19.30
2022-10-10T21:09:14.742Z,23.20
2022-10-10T21:11:46.426Z,20.50
2022-10-10T21:14:17.727Z,22.80
2022-10-10T21:16:47.724Z,21.20
2022-10-10T21:19:16.845Z,21.70
2022-10-10T21:21:46.816Z,22.10
2022-10-10T21:24:15.667Z,19.90
2022-10-10T21:26:45.215Z,23.70
2022-10-10T21:29:13.867Z,20.00
2022-10-10T21:31:42.869Z,23.00
2022-10-10T21:34:15.108Z,23.10
2022-10-10T21:36:43.843Z,26.40
2022-10-10T21:39:12.807Z,26.00
2022-10-10T21:41:41.873Z,23.00
2022-10-10T21:44:11.293Z,27.40
2022-10-10T21:46:39.889Z,20.80
2022-10-10T21:49:11.008Z,25.00
2022-10-10T21:51:42.580Z,22.30
2022-10-10T21:54:11.749Z,22.30
2022-10-10T21:56:40.639Z,22.00
2022-10-10T21:59:10.092Z,20.70
2022-10-10T22:01:38.776Z,20.60
2022-10-10T22:04:07.536Z,18.00
2022-10-10T22:06:36.225Z,22.00
2022-10-10T22:09:05.732Z,21.50
2022-10-10T22:11:35.104Z,18.60
2022-10-10T22:14:04.164Z,22.30
2022-10-10T22:16:33.888Z,19.80
2022-10-10T22:19:03.679Z,18.90
2022-10-10T22:21:34.060Z,20.60
2022-10-10T22:24:06.459Z,19.40
2022-10-10T22:26:35.922Z,16.40
2022-10-10T22:29:05.113Z,20.50
2022-10-10T22:31:37.097Z,22.50
2022-10-10T22:34:05.967Z,15.70
2022-10-10T22:36:35.097Z,20.40
2022-10-10T22:39:04.281Z,18.50
2022-10-10T22:41:32.928Z,19.30
2022-10-10T22:44:02.577Z,20.10
2022-10-10T22:46:31.228Z,18.30
2022-10-10T22:48:59.906Z,18.20
2022-10-10T22:51:28.547Z,18.30
2022-10-10T22:53:57.247Z,16.10
2022-10-10T22:56:25.945Z,17.20
2022-10-10T22:58:54.617Z,21.60
2022-10-10T23:01:26.152Z,16.50
2022-10-10T23:03:56.430Z,21.30
2022-10-10T23:06:25.179Z,18.20
2022-10-10T23:08:54.527Z,21.40
2022-10-10T23:11:23.263Z,17.10
2022-10-10T23:13:52.202Z,18.60
2022-10-10T23:16:21.410Z,15.70
2022-10-10T23:18:50.074Z,16.80
2022-10-10T23:21:19.213Z,19.90
2022-10-10T23:23:47.986Z,19.20
2022-10-10T23:26:17.958Z,18.20
2022-10-10T23:28:48.901Z,18.00
2022-10-10T23:31:17.672Z,17.90
2022-10-10T23:33:46.339Z,17.30
2022-10-10T23:36:15.775Z,17.40
2022-10-10T23:38:44.656Z,16.90
2022-10-10T23:41:13.873Z,18.80
2022-10-10T23:43:42.671Z,18.40
2022-10-10T23:46:12.184Z,19.70
2022-10-10T23:48:40.764Z,19.50
2022-10-10T23:51:09.753Z,18.00
2022-10-10T23:53:38.637Z,17.00
2022-10-10T23:56:08.142Z,19.50
2022-10-10T23:58:37.320Z,16.70
